Time,TemperatureF,DewpointF,PressureIn,WindDirection,WindDirectionDegrees,WindSpeedMPH,WindSpeedGustMPH,Humidity,HourlyPrecipIn,Conditions,Clouds,dailyrainin,SoftwareType,DateUTC
2013-01-14 00:12:00,21.0,19.0,30.48,North,0,0.0,-999.0,92,-99.99,,,-99.99,,2013-01-14 08:12:00,
2013-01-14 00:22:00,21.0,19.0,30.48,North,0,0.0,-999.0,92,-99.99,,,-99.99,,2013-01-14 08:22:00,
2013-01-14 00:32:00,21.0,19.0,30.48,North,0,0.0,-999.0,92,-99.99,,,-99.99,,2013-01-14 08:32:00,
2013-01-14 00:42:00,21.0,19.0,30.46,North,0,0.0,-999.0,92,-99.99,,,-99.99,,2013-01-14 08:42:00,
2013-01-14 00:52:00,21.0,19.0,30.46,North,0,0.0,-999.0,92,-99.99,,,-99.99,,2013-01-14 08:52:00,
2013-01-14 01:12:00,21.0,19.0,30.48,North,0,0.0,-999.0,92,-99.99,,,-99.99,,2013-01-14 09:12:00,
2013-01-14 01:22:00,21.0,19.0,30.48,North,0,0.0,-999.0,92,-99.99,,,-99.99,,2013-01-14 09:22:00,
2013-01-14 01:33:00,21.0,19.0,30.48,North,0,0.0,-999.0,92,-99.99,,,-99.99,,2013-01-14 09:33:00,
2013-01-14 01:42:00,19.0,18.0,30.48,WSW,250,3.0,-999.0,92,-99.99,,,-99.99,,2013-01-14 09:42:00,
2013-01-14 01:52:00,19.0,18.0,30.48,WSW,250,3.0,-999.0,92,-99.99,,,-99.99,,2013-01-14 09:52:00,
2013-01-14 02:12:00,19.0,18.0,30.45,North,0,0.0,-999.0,92,-99.99,,,-99.99,,2013-01-14 10:12:00,
2013-01-14 02:22:00,19.0,18.0,30.45,North,0,0.0,-999.0,92,-99.99,,,-99.99,,2013-01-14 10:22:00,
2013-01-14 02:32:00,19.0,18.0,30.45,North,0,0.0,-999.0,92,-99.99,,,-99.99,,2013-01-14 10:32:00,
2013-01-14 02:42:00,19.0,18.0,30.46,North,0,0.0,-999.0,92,-99.99,,,-99.99,,2013-01-14 10:42:00,
2013-01-14 02:52:00,19.0,18.0,30.46,North,0,0.0,-999.0,92,-99.99,,,-99.99,,2013-01-14 10:52:00,
2013-01-14 03:12:00,19.0,18.0,30.48,North,0,0.0,-999.0,92,-99.99,,,-99.99,,2013-01-14 11:12:00,
2013-01-14 03:22:00,19.0,18.0,30.48,North,0,0.0,-999.0,92,-99.99,,,-99.99,,2013-01-14 11:22:00,
2013-01-14 03:32:00,19.0,18.0,30.48,North,0,0.0,-999.0,92,-99.99,,,-99.99,,2013-01-14 11:32:00,
2013-01-14 03:42:00,21.0,19.0,30.47,North,0,0.0,-999.0,92,-99.99,,,-99.99,,2013-01-14 11:42:00,
2013-01-14 03:53:00,21.0,19.0,30.47,North,0,0.0,-999.0,92,-99.99,,,-99.99,,2013-01-14 11:53:00,
2013-01-14 04:12:00,21.0,19.0,30.46,North,0,0.0,-999.0,92,-99.99,,,-99.99,,2013-01-14 12:12:00,
2013-01-14 04:22:00,21.0,19.0,30.46,North,0,0.0,-999.0,92,-99.99,,,-99.99,,2013-01-14 12:22:00,
2013-01-14 04:33:00,21.0,19.0,30.46,North,0,0.0,-999.0,92,-99.99,,,-99.99,,2013-01-14 12:33:00,
2013-01-14 04:42:00,21.0,19.0,30.45,North,0,0.0,-999.0,92,-99.99,,,-99.99,,2013-01-14 12:42:00,
2013-01-14 04:52:00,21.0,19.0,30.45,North,0,0.0,-999.0,92,-99.99,,,-99.99,,2013-01-14 12:52:00,
2013-01-14 05:12:00,21.0,19.0,30.47,North,0,0.0,-999.0,92,-99.99,,,-99.99,,2013-01-14 13:12:00,
2013-01-14 05:22:00,21.0,19.0,30.47,North,0,0.0,-999.0,92,-99.99,,,-99.99,,2013-01-14 13:22:00,
2013-01-14 05:33:00,21.0,19.0,30.47,North,0,0.0,-999.0,92,-99.99,,,-99.99,,2013-01-14 13:33:00,
2013-01-14 05:43:00,23.0,19.0,30.46,North,0,0.0,-999.0,85,-99.99,,,-99.99,,2013-01-14 13:43:00,
2013-01-14 05:52:00,23.0,19.0,30.46,North,0,0.0,-999.0,85,-99.99,,,-99.99,,2013-01-14 13:52:00,
2013-01-14 06:12:00,21.0,19.0,30.44,SSW,200,5.0,-999.0,92,-99.99,,,-99.99,,2013-01-14 14:12:00,
2013-01-14 06:22:00,21.0,19.0,30.44,SSW,200,5.0,-999.0,92,-99.99,,,-99.99,,2013-01-14 14:22:00,
2013-01-14 06:33:00,21.0,19.0,30.44,SSW,200,5.0,-999.0,92,-99.99,,,-99.99,,2013-01-14 14:33:00,
2013-01-14 06:43:00,21.0,19.0,30.44,North,0,0.0,-999.0,92,-99.99,,,-99.99,,2013-01-14 14:43:00,
2013-01-14 06:52:00,21.0,19.0,30.44,North,0,0.0,-999.0,92,-99.99,,,-99.99,,2013-01-14 14:52:00,
2013-01-14 07:12:00,21.0,19.0,30.44,South,180,6.0,-999.0,92,-99.99,,,-99.99,,2013-01-14 15:12:00,
2013-01-14 07:23:00,21.0,19.0,30.44,South,180,6.0,-999.0,92,-99.99,,,-99.99,,2013-01-14 15:23:00,
2013-01-14 07:33:00,21.0,19.0,30.44,South,180,6.0,-999.0,92,-99.99,,,-99.99,,2013-01-14 15:33:00,
2013-01-14 08:12:00,21.0,19.0,30.43,South,170,5.0,-999.0,92,-99.99,,,-99.99,,2013-01-14 16:12:00,
2013-01-14 08:23:00,21.0,19.0,30.43,South,170,5.0,-999.0,92,-99.99,,,-99.99,,2013-01-14 16:23:00,
2013-01-14 08:33:00,21.0,19.0,30.43,South,170,5.0,-999.0,92,-99.99,,,-99.99,,2013-01-14 16:33:00,
2013-01-14 08:43:00,21.0,18.0,30.43,North,0,0.0,-999.0,85,-99.99,,,-99.99,,2013-01-14 16:43:00,
2013-01-14 08:53:00,21.0,18.0,30.43,North,0,0.0,-999.0,85,-99.99,,,-99.99,,2013-01-14 16:53:00,
2013-01-14 09:12:00,21.0,19.0,30.44,South,180,3.0,-999.0,92,-99.99,,,-99.99,,2013-01-14 17:12:00,
2013-01-14 09:22:00,21.0,19.0,30.44,South,180,3.0,-999.0,92,-99.99,,,-99.99,,2013-01-14 17:22:00,
2013-01-14 09:33:00,21.0,19.0,30.44,South,180,3.0,-999.0,92,-99.99,,,-99.99,,2013-01-14 17:33:00,
2013-01-14 09:43:00,23.0,21.0,30.44,North,0,0.0,-999.0,92,-99.99,,,-99.99,,2013-01-14 17:43:00,
2013-01-14 09:53:00,23.0,21.0,30.44,North,0,0.0,-999.0,92,-99.99,,,-99.99,,2013-01-14 17:53:00,
2013-01-14 10:12:00,27.0,23.0,30.44,SE,130,3.0,-999.0,86,-99.99,,,-99.99,,2013-01-14 18:12:00,
2013-01-14 10:22:00,27.0,23.0,30.44,SE,130,3.0,-999.0,86,-99.99,,,-99.99,,2013-01-14 18:22:00,
2013-01-14 10:33:00,27.0,23.0,30.44,SE,130,3.0,-999.0,86,-99.99,,,-99.99,,2013-01-14 18:33:00,
2013-01-14 10:42:00,27.0,23.0,30.43,SSW,200,6.0,-999.0,86,-99.99,,,-99.99,,2013-01-14 18:42:00,
2013-01-14 10:52:00,27.0,23.0,30.43,SSW,200,6.0,-999.0,86,-99.99,,,-99.99,,2013-01-14 18:52:00,
2013-01-14 11:42:00,36.0,27.0,30.39,WSW,240,8.0,22.0,69,-99.99,,,-99.99,,2013-01-14 19:42:00,
2013-01-14 11:52:00,36.0,27.0,30.39,WSW,240,8.0,22.0,69,-99.99,,,-99.99,,2013-01-14 19:52:00,
2013-01-14 12:12:00,36.0,27.0,30.37,WNW,290,16.0,28.0,69,-99.99,,,-99.99,,2013-01-14 20:12:00,
2013-01-14 12:22:00,36.0,27.0,30.37,WNW,290,16.0,28.0,69,-99.99,,,-99.99,,2013-01-14 20:22:00,
2013-01-14 12:33:00,36.0,27.0,30.37,WNW,290,16.0,28.0,69,-99.99,,,-99.99,,2013-01-14 20:33:00,
2013-01-14 12:42:00,37.0,27.0,30.38,WNW,290,14.0,22.0,64,-99.99,,,-99.99,,2013-01-14 20:42:00,
2013-01-14 12:53:00,37.0,27.0,30.38,WNW,290,14.0,22.0,64,-99.99,,,-99.99,,2013-01-14 20:53:00,
2013-01-14 13:12:00,39.0,28.0,30.38,West,280,9.0,18.0,64,-99.99,,,-99.99,,2013-01-14 21:12:00,
2013-01-14 13:22:00,39.0,28.0,30.38,West,280,9.0,18.0,64,-99.99,,,-99.99,,2013-01-14 21:22:00,
2013-01-14 13:33:00,39.0,28.0,30.38,West,280,9.0,18.0,64,-99.99,,,-99.99,,2013-01-14 21:33:00,
2013-01-14 13:42:00,41.0,27.0,30.38,West,280,12.0,20.0,56,-99.99,,,-99.99,,2013-01-14 21:42:00,
2013-01-14 13:53:00,41.0,27.0,30.38,West,280,12.0,20.0,56,-99.99,,,-99.99,,2013-01-14 21:53:00,
2013-01-14 14:12:00,39.0,28.0,30.39,West,280,8.0,17.0,64,-99.99,,,-99.99,,2013-01-14 22:12:00,
2013-01-14 14:23:00,39.0,28.0,30.39,West,280,8.0,17.0,64,-99.99,,,-99.99,,2013-01-14 22:23:00,
2013-01-14 14:32:00,39.0,28.0,30.39,West,280,8.0,17.0,64,-99.99,,,-99.99,,2013-01-14 22:32:00,
2013-01-14 14:42:00,39.0,28.0,30.40,WNW,290,12.0,18.0,64,-99.99,,,-99.99,,2013-01-14 22:42:00,
2013-01-14 14:52:00,39.0,28.0,30.40,WNW,290,12.0,18.0,64,-99.99,,,-99.99,,2013-01-14 22:52:00,
2013-01-14 15:42:00,39.0,28.0,30.40,WNW,290,13.0,23.0,64,-99.99,,,-99.99,,2013-01-14 23:42:00,
2013-01-14 15:52:00,39.0,28.0,30.40,WNW,290,13.0,23.0,64,-99.99,,,-99.99,,2013-01-14 23:52:00,
2013-01-14 16:12:00,37.0,28.0,30.41,WNW,300,14.0,21.0,69,-99.99,,,-99.99,,2013-01-15 00:12:00,
2013-01-14 16:22:00,37.0,28.0,30.41,WNW,300,14.0,21.0,69,-99.99,,,-99.99,,2013-01-15 00:22:00,
2013-01-14 16:32:00,37.0,28.0,30.41,WNW,300,14.0,21.0,69,-99.99,,,-99.99,,2013-01-15 00:32:00,
2013-01-14 16:43:00,37.0,28.0,30.42,WNW,300,12.0,21.0,69,-99.99,,,-99.99,,2013-01-15 00:43:00,
2013-01-14 16:52:00,37.0,28.0,30.42,WNW,300,12.0,21.0,69,-99.99,,,-99.99,,2013-01-15 00:52:00,
2013-01-14 17:12:00,36.0,30.0,30.43,NW,310,12.0,20.0,80,-99.99,,,-99.99,,2013-01-15 01:12:00,
2013-01-14 17:22:00,36.0,30.0,30.43,NW,310,12.0,20.0,80,-99.99,,,-99.99,,2013-01-15 01:22:00,
2013-01-14 17:32:00,36.0,30.0,30.43,NW,310,12.0,20.0,80,-99.99,,,-99.99,,2013-01-15 01:32:00,
2013-01-14 17:42:00,36.0,30.0,30.44,WNW,300,10.0,-999.0,80,-99.99,,,-99.99,,2013-01-15 01:42:00,
2013-01-14 17:52:00,36.0,30.0,30.44,WNW,300,10.0,-999.0,80,-99.99,,,-99.99,,2013-01-15 01:52:00,
2013-01-14 18:12:00,37.0,30.0,30.43,NW,310,9.0,-999.0,74,-99.99,,,-99.99,,2013-01-15 02:12:00,
2013-01-14 18:22:00,37.0,30.0,30.43,NW,310,9.0,-999.0,74,-99.99,,,-99.99,,2013-01-15 02:22:00,
2013-01-14 18:32:00,37.0,30.0,30.43,NW,310,9.0,-999.0,74,-99.99,,,-99.99,,2013-01-15 02:32:00,
2013-01-14 18:42:00,36.0,30.0,30.43,NW,310,12.0,-999.0,80,-99.99,,,-99.99,,2013-01-15 02:42:00,
2013-01-14 18:52:00,36.0,30.0,30.43,NW,310,12.0,-999.0,80,-99.99,,,-99.99,,2013-01-15 02:52:00,
2013-01-14 19:12:00,36.0,30.0,30.45,NW,310,12.0,17.0,80,-99.99,,,-99.99,,2013-01-15 03:12:00,
2013-01-14 19:22:00,36.0,30.0,30.45,NW,310,12.0,17.0,80,-99.99,,,-99.99,,2013-01-15 03:22:00,
2013-01-14 19:32:00,36.0,30.0,30.45,NW,310,12.0,17.0,80,-99.99,,,-99.99,,2013-01-15 03:32:00,
2013-01-14 19:42:00,36.0,30.0,30.46,WNW,300,13.0,18.0,80,-99.99,,,-99.99,,2013-01-15 03:42:00,
2013-01-14 19:52:00,36.0,30.0,30.46,WNW,300,13.0,18.0,80,-99.99,,,-99.99,,2013-01-15 03:52:00,
2013-01-14 20:42:00,37.0,32.0,30.45,WNW,290,9.0,18.0,80,-99.99,,,-99.99,,2013-01-15 04:42:00,
2013-01-14 20:52:00,37.0,32.0,30.45,WNW,290,9.0,18.0,80,-99.99,,,-99.99,,2013-01-15 04:52:00,
2013-01-14 21:12:00,37.0,32.0,30.46,NW,320,13.0,17.0,80,-99.99,,,-99.99,,2013-01-15 05:12:00,
2013-01-14 21:22:00,37.0,32.0,30.46,NW,320,13.0,17.0,80,-99.99,,,-99.99,,2013-01-15 05:22:00,
2013-01-14 21:33:00,37.0,32.0,30.46,NW,320,13.0,17.0,80,-99.99,,,-99.99,,2013-01-15 05:33:00,
2013-01-14 21:42:00,37.0,32.0,30.46,NW,310,8.0,17.0,80,-99.99,,,-99.99,,2013-01-15 05:42:00,
2013-01-14 21:52:00,37.0,32.0,30.46,NW,310,8.0,17.0,80,-99.99,,,-99.99,,2013-01-15 05:52:00,
2013-01-14 22:12:00,37.0,32.0,30.45,WNW,300,14.0,27.0,80,-99.99,,,-99.99,,2013-01-15 06:12:00,
2013-01-14 22:22:00,37.0,32.0,30.45,WNW,300,14.0,27.0,80,-99.99,,,-99.99,,2013-01-15 06:22:00,
2013-01-14 22:32:00,37.0,32.0,30.45,WNW,300,14.0,27.0,80,-99.99,,,-99.99,,2013-01-15 06:32:00,
2013-01-14 22:42:00,37.0,32.0,30.45,NW,310,13.0,20.0,80,-99.99,,,-99.99,,2013-01-15 06:42:00,
2013-01-14 22:52:00,37.0,32.0,30.45,NW,310,13.0,20.0,80,-99.99,,,-99.99,,2013-01-15 06:52:00,
2013-01-14 23:12:00,36.0,30.0,30.46,WSW,250,5.0,-999.0,80,-99.99,,,-99.99,,2013-01-15 07:12:00,
2013-01-14 23:22:00,36.0,30.0,30.46,WSW,250,5.0,-999.0,80,-99.99,,,-99.99,,2013-01-15 07:22:00,
2013-01-14 23:32:00,36.0,30.0,30.46,WSW,250,5.0,-999.0,80,-99.99,,,-99.99,,2013-01-15 07:32:00,